sensor_id;sensor_type;location;lat;lon;timestamp;P1;durP1;ratioP1;P2;durP2;ratioP2
55090;SDS011;40985;53.180;5.800;2022-11-20T00:00:40;14.02;;;8.88;;
55090;SDS011;40985;53.180;5.800;2022-11-20T00:03:06;13.73;;;9.27;;
55090;SDS011;40985;53.180;5.800;2022-11-20T00:05:32;12.98;;;8.32;;
55090;SDS011;40985;53.180;5.800;2022-11-20T00:07:58;15.77;;;8.77;;
55090;SDS011;40985;53.180;5.800;2022-11-20T00:10:23;13.98;;;9.02;;
55090;SDS011;40985;53.180;5.800;2022-11-20T00:12:49;15.45;;;10.57;;
55090;SDS011;40985;53.180;5.800;2022-11-20T00:15:15;13.88;;;9.15;;
55090;SDS011;40985;53.180;5.800;2022-11-20T00:17:40;13.52;;;9.85;;
55090;SDS011;40985;53.180;5.800;2022-11-20T00:20:07;14.68;;;9.85;;
55090;SDS011;40985;53.180;5.800;2022-11-20T00:22:33;13.88;;;9.38;;
55090;SDS011;40985;53.180;5.800;2022-11-20T00:24:58;12.07;;;9.15;;
55090;SDS011;40985;53.180;5.800;2022-11-20T00:27:24;13.45;;;8.57;;
55090;SDS011;40985;53.180;5.800;2022-11-20T00:29:50;13.02;;;8.50;;
55090;SDS011;40985;53.180;5.800;2022-11-20T00:32:15;12.52;;;9.68;;
55090;SDS011;40985;53.180;5.800;2022-11-20T00:34:41;12.88;;;9.10;;
55090;SDS011;40985;53.180;5.800;2022-11-20T00:37:07;13.77;;;8.43;;
55090;SDS011;40985;53.180;5.800;2022-11-20T00:39:32;16.38;;;10.18;;
55090;SDS011;40985;53.180;5.800;2022-11-20T00:41:58;13.40;;;8.55;;
55090;SDS011;40985;53.180;5.800;2022-11-20T00:44:24;12.60;;;8.70;;
55090;SDS011;40985;53.180;5.800;2022-11-20T00:46:49;12.18;;;8.45;;
55090;SDS011;40985;53.180;5.800;2022-11-20T00:49:15;12.35;;;8.68;;
55090;SDS011;40985;53.180;5.800;2022-11-20T00:51:41;12.05;;;8.85;;
55090;SDS011;40985;53.180;5.800;2022-11-20T00:54:06;15.73;;;9.13;;
55090;SDS011;40985;53.180;5.800;2022-11-20T00:56:32;12.18;;;9.00;;
55090;SDS011;40985;53.180;5.800;2022-11-20T00:58:59;13.48;;;9.35;;
55090;SDS011;40985;53.180;5.800;2022-11-20T01:01:26;17.50;;;9.50;;
55090;SDS011;40985;53.180;5.800;2022-11-20T01:03:55;15.82;;;10.27;;
55090;SDS011;40985;53.180;5.800;2022-11-20T01:06:29;14.10;;;9.40;;
55090;SDS011;40985;53.180;5.800;2022-11-20T01:08:57;12.57;;;8.75;;
55090;SDS011;40985;53.180;5.800;2022-11-20T01:11:28;13.35;;;9.15;;
55090;SDS011;40985;53.180;5.800;2022-11-20T01:13:57;13.60;;;9.23;;
55090;SDS011;40985;53.180;5.800;2022-11-20T01:16:25;15.55;;;9.35;;
55090;SDS011;40985;53.180;5.800;2022-11-20T01:18:55;15.55;;;10.25;;
55090;SDS011;40985;53.180;5.800;2022-11-20T01:21:24;15.65;;;9.10;;
55090;SDS011;40985;53.180;5.800;2022-11-20T01:23:51;19.73;;;10.10;;
55090;SDS011;40985;53.180;5.800;2022-11-20T01:26:18;15.88;;;9.18;;
55090;SDS011;40985;53.180;5.800;2022-11-20T01:28:53;14.15;;;9.70;;
55090;SDS011;40985;53.180;5.800;2022-11-20T01:31:29;13.13;;;8.43;;
55090;SDS011;40985;53.180;5.800;2022-11-20T01:33:58;12.70;;;8.80;;
55090;SDS011;40985;53.180;5.800;2022-11-20T01:36:26;14.40;;;9.05;;
55090;SDS011;40985;53.180;5.800;2022-11-20T01:38:54;13.07;;;9.20;;
55090;SDS011;40985;53.180;5.800;2022-11-20T01:41:21;12.88;;;9.00;;
55090;SDS011;40985;53.180;5.800;2022-11-20T01:44:06;12.02;;;8.50;;
55090;SDS011;40985;53.180;5.800;2022-11-20T01:46:35;15.63;;;10.23;;
55090;SDS011;40985;53.180;5.800;2022-11-20T01:49:04;14.70;;;9.70;;
55090;SDS011;40985;53.180;5.800;2022-11-20T01:54:11;16.13;;;9.38;;
55090;SDS011;40985;53.180;5.800;2022-11-20T01:56:50;14.27;;;8.63;;
55090;SDS011;40985;53.180;5.800;2022-11-20T01:59:18;12.48;;;8.70;;
55090;SDS011;40985;53.180;5.800;2022-11-20T02:01:45;14.20;;;9.57;;
55090;SDS011;40985;53.180;5.800;2022-11-20T02:04:11;15.93;;;9.45;;
55090;SDS011;40985;53.180;5.800;2022-11-20T02:06:40;15.45;;;10.00;;
55090;SDS011;40985;53.180;5.800;2022-11-20T02:09:10;14.93;;;9.80;;
55090;SDS011;40985;53.180;5.800;2022-11-20T02:11:36;14.50;;;9.50;;
55090;SDS011;40985;53.180;5.800;2022-11-20T02:14:02;14.32;;;9.55;;
55090;SDS011;40985;53.180;5.800;2022-11-20T02:16:29;14.18;;;10.07;;
55090;SDS011;40985;53.180;5.800;2022-11-20T02:18:59;14.40;;;9.80;;
55090;SDS011;40985;53.180;5.800;2022-11-20T02:24:08;14.43;;;9.75;;
55090;SDS011;40985;53.180;5.800;2022-11-20T02:29:18;16.85;;;10.20;;
55090;SDS011;40985;53.180;5.800;2022-11-20T02:31:49;16.48;;;10.05;;
55090;SDS011;40985;53.180;5.800;2022-11-20T02:34:16;14.43;;;9.70;;
55090;SDS011;40985;53.180;5.800;2022-11-20T02:36:42;15.13;;;9.27;;
55090;SDS011;40985;53.180;5.800;2022-11-20T02:39:08;15.23;;;10.00;;
55090;SDS011;40985;53.180;5.800;2022-11-20T02:41:37;15.90;;;10.07;;
55090;SDS011;40985;53.180;5.800;2022-11-20T02:44:04;17.92;;;10.93;;
55090;SDS011;40985;53.180;5.800;2022-11-20T02:46:31;13.23;;;9.63;;
55090;SDS011;40985;53.180;5.800;2022-11-20T02:48:57;13.30;;;9.70;;
55090;SDS011;40985;53.180;5.800;2022-11-20T02:51:23;17.40;;;9.95;;
55090;SDS011;40985;53.180;5.800;2022-11-20T02:53:49;16.75;;;11.05;;
55090;SDS011;40985;53.180;5.800;2022-11-20T02:56:15;15.60;;;10.18;;
55090;SDS011;40985;53.180;5.800;2022-11-20T02:58:41;15.15;;;9.55;;
55090;SDS011;40985;53.180;5.800;2022-11-20T03:01:06;15.10;;;10.38;;
55090;SDS011;40985;53.180;5.800;2022-11-20T03:03:32;13.02;;;9.45;;
55090;SDS011;40985;53.180;5.800;2022-11-20T03:05:58;14.75;;;10.10;;
55090;SDS011;40985;53.180;5.800;2022-11-20T03:08:24;13.18;;;9.88;;
55090;SDS011;40985;53.180;5.800;2022-11-20T03:10:50;13.38;;;9.02;;
55090;SDS011;40985;53.180;5.800;2022-11-20T03:13:16;13.45;;;9.55;;
55090;SDS011;40985;53.180;5.800;2022-11-20T03:15:42;12.63;;;9.75;;
55090;SDS011;40985;53.180;5.800;2022-11-20T03:18:07;12.85;;;9.55;;
55090;SDS011;40985;53.180;5.800;2022-11-20T03:20:33;15.30;;;9.80;;
55090;SDS011;40985;53.180;5.800;2022-11-20T03:22:59;13.80;;;10.20;;
55090;SDS011;40985;53.180;5.800;2022-11-20T03:25:25;12.75;;;8.75;;
55090;SDS011;40985;53.180;5.800;2022-11-20T03:27:51;13.13;;;8.98;;
55090;SDS011;40985;53.180;5.800;2022-11-20T03:30:16;13.15;;;9.13;;
55090;SDS011;40985;53.180;5.800;2022-11-20T03:32:42;13.32;;;10.38;;
55090;SDS011;40985;53.180;5.800;2022-11-20T03:35:09;15.45;;;9.80;;
55090;SDS011;40985;53.180;5.800;2022-11-20T03:37:35;14.15;;;10.05;;
55090;SDS011;40985;53.180;5.800;2022-11-20T03:40:00;13.18;;;9.55;;
55090;SDS011;40985;53.180;5.800;2022-11-20T03:42:26;15.27;;;9.57;;
55090;SDS011;40985;53.180;5.800;2022-11-20T03:45:10;14.30;;;9.43;;
55090;SDS011;40985;53.180;5.800;2022-11-20T03:47:35;14.30;;;9.43;;
55090;SDS011;40985;53.180;5.800;2022-11-20T03:50:01;12.85;;;8.45;;
55090;SDS011;40985;53.180;5.800;2022-11-20T03:52:27;13.05;;;8.65;;
55090;SDS011;40985;53.180;5.800;2022-11-20T03:54:53;11.48;;;8.43;;
55090;SDS011;40985;53.180;5.800;2022-11-20T03:57:18;11.40;;;8.57;;
55090;SDS011;40985;53.180;5.800;2022-11-20T03:59:44;13.50;;;8.75;;
55090;SDS011;40985;53.180;5.800;2022-11-20T04:02:10;13.70;;;9.20;;
55090;SDS011;40985;53.180;5.800;2022-11-20T04:04:35;14.73;;;9.30;;
55090;SDS011;40985;53.180;5.800;2022-11-20T04:07:01;14.40;;;9.57;;
55090;SDS011;40985;53.180;5.800;2022-11-20T04:09:28;13.88;;;8.90;;
55090;SDS011;40985;53.180;5.800;2022-11-20T04:11:53;13.27;;;9.50;;
55090;SDS011;40985;53.180;5.800;2022-11-20T04:14:19;13.23;;;10.20;;
55090;SDS011;40985;53.180;5.800;2022-11-20T04:16:45;14.75;;;9.05;;
55090;SDS011;40985;53.180;5.800;2022-11-20T04:19:11;12.88;;;9.35;;
55090;SDS011;40985;53.180;5.800;2022-11-20T04:21:38;14.93;;;9.13;;
55090;SDS011;40985;53.180;5.800;2022-11-20T04:24:04;12.38;;;8.75;;
55090;SDS011;40985;53.180;5.800;2022-11-20T04:26:31;15.55;;;9.38;;
55090;SDS011;40985;53.180;5.800;2022-11-20T04:28:57;13.13;;;8.50;;
55090;SDS011;40985;53.180;5.800;2022-11-20T04:31:24;14.38;;;10.05;;
55090;SDS011;40985;53.180;5.800;2022-11-20T04:33:52;9.88;;;7.55;;
55090;SDS011;40985;53.180;5.800;2022-11-20T04:36:19;10.95;;;7.90;;
55090;SDS011;40985;53.180;5.800;2022-11-20T04:38:52;11.93;;;8.63;;
55090;SDS011;40985;53.180;5.800;2022-11-20T04:41:20;13.68;;;8.50;;
55090;SDS011;40985;53.180;5.800;2022-11-20T04:43:50;13.43;;;9.02;;
55090;SDS011;40985;53.180;5.800;2022-11-20T04:46:17;13.40;;;8.48;;
55090;SDS011;40985;53.180;5.800;2022-11-20T04:48:44;15.13;;;9.88;;
55090;SDS011;40985;53.180;5.800;2022-11-20T04:51:10;16.13;;;9.95;;
55090;SDS011;40985;53.180;5.800;2022-11-20T04:53:37;15.60;;;9.90;;
55090;SDS011;40985;53.180;5.800;2022-11-20T04:56:03;14.80;;;9.70;;
55090;SDS011;40985;53.180;5.800;2022-11-20T04:58:31;15.50;;;9.95;;
55090;SDS011;40985;53.180;5.800;2022-11-20T05:01:15;14.13;;;9.43;;
55090;SDS011;40985;53.180;5.800;2022-11-20T05:03:42;17.25;;;9.68;;
55090;SDS011;40985;53.180;5.800;2022-11-20T05:06:10;14.93;;;9.70;;
55090;SDS011;40985;53.180;5.800;2022-11-20T05:08:37;14.75;;;9.85;;
55090;SDS011;40985;53.180;5.800;2022-11-20T05:11:04;12.90;;;8.70;;
55090;SDS011;40985;53.180;5.800;2022-11-20T05:13:40;14.00;;;9.80;;
55090;SDS011;40985;53.180;5.800;2022-11-20T05:16:06;13.45;;;9.18;;
55090;SDS011;40985;53.180;5.800;2022-11-20T05:18:35;14.60;;;9.10;;
55090;SDS011;40985;53.180;5.800;2022-11-20T05:21:01;16.50;;;9.02;;
55090;SDS011;40985;53.180;5.800;2022-11-20T05:23:28;12.85;;;8.80;;
55090;SDS011;40985;53.180;5.800;2022-11-20T05:25:55;15.70;;;9.10;;
55090;SDS011;40985;53.180;5.800;2022-11-20T05:28:21;15.10;;;9.48;;
55090;SDS011;40985;53.180;5.800;2022-11-20T05:30:48;15.88;;;9.55;;
55090;SDS011;40985;53.180;5.800;2022-11-20T05:33:14;13.98;;;9.07;;
55090;SDS011;40985;53.180;5.800;2022-11-20T05:35:40;11.30;;;8.38;;
55090;SDS011;40985;53.180;5.800;2022-11-20T05:38:06;17.85;;;9.30;;
55090;SDS011;40985;53.180;5.800;2022-11-20T05:40:32;12.43;;;8.13;;
55090;SDS011;40985;53.180;5.800;2022-11-20T05:42:58;12.52;;;8.65;;
55090;SDS011;40985;53.180;5.800;2022-11-20T05:45:24;12.95;;;9.07;;
55090;SDS011;40985;53.180;5.800;2022-11-20T05:47:50;12.00;;;8.70;;
55090;SDS011;40985;53.180;5.800;2022-11-20T05:50:15;14.57;;;9.30;;
55090;SDS011;40985;53.180;5.800;2022-11-20T05:52:41;19.13;;;9.30;;
55090;SDS011;40985;53.180;5.800;2022-11-20T05:55:07;11.77;;;8.45;;
55090;SDS011;40985;53.180;5.800;2022-11-20T05:57:33;13.63;;;7.53;;
55090;SDS011;40985;53.180;5.800;2022-11-20T05:59:58;14.05;;;8.10;;
55090;SDS011;40985;53.180;5.800;2022-11-20T06:02:24;12.80;;;8.27;;
55090;SDS011;40985;53.180;5.800;2022-11-20T06:04:50;12.98;;;8.48;;
55090;SDS011;40985;53.180;5.800;2022-11-20T06:07:15;13.30;;;9.10;;
55090;SDS011;40985;53.180;5.800;2022-11-20T06:09:41;11.27;;;8.15;;
55090;SDS011;40985;53.180;5.800;2022-11-20T06:12:07;14.82;;;8.45;;
55090;SDS011;40985;53.180;5.800;2022-11-20T06:14:33;13.52;;;8.70;;
55090;SDS011;40985;53.180;5.800;2022-11-20T06:16:59;13.02;;;9.57;;
55090;SDS011;40985;53.180;5.800;2022-11-20T06:19:24;15.27;;;8.73;;
55090;SDS011;40985;53.180;5.800;2022-11-20T06:21:50;14.52;;;9.82;;
55090;SDS011;40985;53.180;5.800;2022-11-20T06:24:16;12.50;;;8.98;;
55090;SDS011;40985;53.180;5.800;2022-11-20T06:26:42;15.15;;;9.88;;
55090;SDS011;40985;53.180;5.800;2022-11-20T06:29:08;14.43;;;9.23;;
55090;SDS011;40985;53.180;5.800;2022-11-20T06:31:34;12.85;;;9.13;;
55090;SDS011;40985;53.180;5.800;2022-11-20T06:34:03;13.52;;;9.43;;
55090;SDS011;40985;53.180;5.800;2022-11-20T06:36:30;14.60;;;9.40;;
55090;SDS011;40985;53.180;5.800;2022-11-20T06:38:56;14.55;;;9.18;;
55090;SDS011;40985;53.180;5.800;2022-11-20T06:41:22;13.88;;;9.45;;
55090;SDS011;40985;53.180;5.800;2022-11-20T06:43:47;14.40;;;9.25;;
55090;SDS011;40985;53.180;5.800;2022-11-20T06:46:15;13.07;;;9.45;;
55090;SDS011;40985;53.180;5.800;2022-11-20T06:48:44;13.00;;;9.18;;
55090;SDS011;40985;53.180;5.800;2022-11-20T06:51:10;13.45;;;9.68;;
55090;SDS011;40985;53.180;5.800;2022-11-20T06:53:36;12.85;;;8.82;;
55090;SDS011;40985;53.180;5.800;2022-11-20T06:56:02;13.38;;;8.60;;
55090;SDS011;40985;53.180;5.800;2022-11-20T06:58:29;14.27;;;9.50;;
55090;SDS011;40985;53.180;5.800;2022-11-20T07:00:59;15.30;;;10.00;;
55090;SDS011;40985;53.180;5.800;2022-11-20T07:03:26;15.30;;;9.85;;
55090;SDS011;40985;53.180;5.800;2022-11-20T07:05:53;13.70;;;8.73;;
55090;SDS011;40985;53.180;5.800;2022-11-20T07:08:22;13.18;;;8.65;;
55090;SDS011;40985;53.180;5.800;2022-11-20T07:10:48;13.75;;;9.10;;
55090;SDS011;40985;53.180;5.800;2022-11-20T07:13:14;13.75;;;9.93;;
55090;SDS011;40985;53.180;5.800;2022-11-20T07:15:40;13.82;;;9.55;;
55090;SDS011;40985;53.180;5.800;2022-11-20T07:18:05;13.48;;;9.50;;
55090;SDS011;40985;53.180;5.800;2022-11-20T07:20:31;14.15;;;9.35;;
55090;SDS011;40985;53.180;5.800;2022-11-20T07:22:57;14.57;;;9.80;;
55090;SDS011;40985;53.180;5.800;2022-11-20T07:25:26;13.07;;;9.77;;
55090;SDS011;40985;53.180;5.800;2022-11-20T07:27:52;17.27;;;10.88;;
55090;SDS011;40985;53.180;5.800;2022-11-20T07:30:22;15.98;;;10.68;;
55090;SDS011;40985;53.180;5.800;2022-11-20T07:32:51;18.65;;;10.63;;
55090;SDS011;40985;53.180;5.800;2022-11-20T07:35:17;18.65;;;11.82;;
55090;SDS011;40985;53.180;5.800;2022-11-20T07:37:44;16.27;;;9.57;;
55090;SDS011;40985;53.180;5.800;2022-11-20T07:40:11;14.27;;;10.27;;
55090;SDS011;40985;53.180;5.800;2022-11-20T07:42:37;16.52;;;10.98;;
55090;SDS011;40985;53.180;5.800;2022-11-20T07:45:03;18.38;;;12.07;;
55090;SDS011;40985;53.180;5.800;2022-11-20T07:47:34;18.17;;;12.35;;
55090;SDS011;40985;53.180;5.800;2022-11-20T07:50:01;17.10;;;11.63;;
55090;SDS011;40985;53.180;5.800;2022-11-20T07:52:26;18.60;;;12.52;;
55090;SDS011;40985;53.180;5.800;2022-11-20T07:54:52;18.08;;;12.35;;
55090;SDS011;40985;53.180;5.800;2022-11-20T07:57:18;18.30;;;12.43;;
55090;SDS011;40985;53.180;5.800;2022-11-20T07:59:43;18.52;;;11.70;;
55090;SDS011;40985;53.180;5.800;2022-11-20T08:02:11;18.13;;;12.93;;
55090;SDS011;40985;53.180;5.800;2022-11-20T08:04:36;17.77;;;11.95;;
55090;SDS011;40985;53.180;5.800;2022-11-20T08:07:02;20.60;;;13.43;;
55090;SDS011;40985;53.180;5.800;2022-11-20T08:09:27;17.25;;;12.50;;
55090;SDS011;40985;53.180;5.800;2022-11-20T08:11:54;17.92;;;11.80;;
55090;SDS011;40985;53.180;5.800;2022-11-20T08:14:38;17.88;;;11.85;;
55090;SDS011;40985;53.180;5.800;2022-11-20T08:17:04;17.45;;;12.23;;
55090;SDS011;40985;53.180;5.800;2022-11-20T08:19:30;34.97;;;22.48;;
55090;SDS011;40985;53.180;5.800;2022-11-20T08:21:55;28.00;;;17.88;;
55090;SDS011;40985;53.180;5.800;2022-11-20T08:24:21;25.15;;;15.52;;
55090;SDS011;40985;53.180;5.800;2022-11-20T08:26:47;19.42;;;13.52;;
55090;SDS011;40985;53.180;5.800;2022-11-20T08:29:12;21.42;;;12.98;;
55090;SDS011;40985;53.180;5.800;2022-11-20T08:31:38;21.02;;;13.15;;
55090;SDS011;40985;53.180;5.800;2022-11-20T08:34:03;21.90;;;12.52;;
55090;SDS011;40985;53.180;5.800;2022-11-20T08:36:32;23.75;;;15.52;;
55090;SDS011;40985;53.180;5.800;2022-11-20T08:38:58;21.95;;;13.07;;
55090;SDS011;40985;53.180;5.800;2022-11-20T08:41:24;21.40;;;13.23;;
55090;SDS011;40985;53.180;5.800;2022-11-20T08:46:21;23.73;;;15.63;;
55090;SDS011;40985;53.180;5.800;2022-11-20T08:48:47;23.10;;;16.73;;
55090;SDS011;40985;53.180;5.800;2022-11-20T08:51:13;23.58;;;16.20;;
55090;SDS011;40985;53.180;5.800;2022-11-20T08:53:39;21.02;;;14.20;;
55090;SDS011;40985;53.180;5.800;2022-11-20T08:56:05;20.90;;;14.25;;
55090;SDS011;40985;53.180;5.800;2022-11-20T08:58:31;16.00;;;11.43;;
55090;SDS011;40985;53.180;5.800;2022-11-20T09:00:57;18.60;;;12.75;;
55090;SDS011;40985;53.180;5.800;2022-11-20T09:03:22;17.48;;;12.38;;
55090;SDS011;40985;53.180;5.800;2022-11-20T09:05:48;17.02;;;12.77;;
55090;SDS011;40985;53.180;5.800;2022-11-20T09:08:14;17.00;;;11.63;;
55090;SDS011;40985;53.180;5.800;2022-11-20T09:10:40;14.60;;;11.07;;
55090;SDS011;40985;53.180;5.800;2022-11-20T09:13:05;18.50;;;12.60;;
55090;SDS011;40985;53.180;5.800;2022-11-20T09:15:31;17.58;;;12.32;;
55090;SDS011;40985;53.180;5.800;2022-11-20T09:18:01;16.33;;;11.73;;
55090;SDS011;40985;53.180;5.800;2022-11-20T09:20:29;14.88;;;11.15;;
55090;SDS011;40985;53.180;5.800;2022-11-20T09:22:56;16.88;;;12.45;;
55090;SDS011;40985;53.180;5.800;2022-11-20T09:25:22;15.52;;;10.95;;
55090;SDS011;40985;53.180;5.800;2022-11-20T09:27:54;15.10;;;11.70;;
55090;SDS011;40985;53.180;5.800;2022-11-20T09:30:23;16.88;;;11.52;;
55090;SDS011;40985;53.180;5.800;2022-11-20T09:32:49;13.70;;;11.27;;
55090;SDS011;40985;53.180;5.800;2022-11-20T09:35:15;15.95;;;11.38;;
55090;SDS011;40985;53.180;5.800;2022-11-20T09:37:41;16.02;;;11.20;;
55090;SDS011;40985;53.180;5.800;2022-11-20T09:40:08;14.52;;;10.95;;
55090;SDS011;40985;53.180;5.800;2022-11-20T09:45:16;15.13;;;12.07;;
55090;SDS011;40985;53.180;5.800;2022-11-20T09:48:07;15.48;;;11.82;;
55090;SDS011;40985;53.180;5.800;2022-11-20T09:56:06;15.23;;;10.88;;
55090;SDS011;40985;53.180;5.800;2022-11-20T09:58:45;14.93;;;10.82;;
55090;SDS011;40985;53.180;5.800;2022-11-20T10:01:16;14.70;;;10.65;;
55090;SDS011;40985;53.180;5.800;2022-11-20T10:06:21;13.75;;;9.93;;
55090;SDS011;40985;53.180;5.800;2022-11-20T10:09:11;14.32;;;10.52;;
55090;SDS011;40985;53.180;5.800;2022-11-20T10:12:03;12.20;;;9.77;;
55090;SDS011;40985;53.180;5.800;2022-11-20T10:14:50;12.20;;;10.25;;
55090;SDS011;40985;53.180;5.800;2022-11-20T10:31:04;13.05;;;9.70;;
55090;SDS011;40985;53.180;5.800;2022-11-20T10:33:41;11.93;;;9.43;;
55090;SDS011;40985;53.180;5.800;2022-11-20T10:36:26;12.55;;;9.32;;
55090;SDS011;40985;53.180;5.800;2022-11-20T10:39:01;13.25;;;10.13;;
55090;SDS011;40985;53.180;5.800;2022-11-20T10:41:34;11.13;;;9.40;;
55090;SDS011;40985;53.180;5.800;2022-11-20T10:44:05;11.43;;;8.50;;
55090;SDS011;40985;53.180;5.800;2022-11-20T10:46:43;12.02;;;8.80;;
55090;SDS011;40985;53.180;5.800;2022-11-20T10:49:14;11.18;;;8.68;;
55090;SDS011;40985;53.180;5.800;2022-11-20T10:58:00;8.53;;;7.50;;
55090;SDS011;40985;53.180;5.800;2022-11-20T11:00:35;8.50;;;6.93;;
55090;SDS011;40985;53.180;5.800;2022-11-20T11:03:01;8.50;;;7.45;;
55090;SDS011;40985;53.180;5.800;2022-11-20T11:07:57;8.40;;;6.30;;
55090;SDS011;40985;53.180;5.800;2022-11-20T11:10:35;7.05;;;6.20;;
55090;SDS011;40985;53.180;5.800;2022-11-20T11:13:32;7.75;;;6.47;;
55090;SDS011;40985;53.180;5.800;2022-11-20T11:15:57;7.22;;;5.80;;
55090;SDS011;40985;53.180;5.800;2022-11-20T11:20:55;5.97;;;5.38;;
55090;SDS011;40985;53.180;5.800;2022-11-20T11:23:43;6.88;;;6.18;;
55090;SDS011;40985;53.180;5.800;2022-11-20T11:29:03;6.25;;;3.90;;
55090;SDS011;40985;53.180;5.800;2022-11-20T11:31:33;4.28;;;3.88;;
55090;SDS011;40985;53.180;5.800;2022-11-20T11:34:12;4.18;;;3.78;;
55090;SDS011;40985;53.180;5.800;2022-11-20T11:36:40;3.58;;;3.28;;
55090;SDS011;40985;53.180;5.800;2022-11-20T11:39:10;3.90;;;3.17;;
55090;SDS011;40985;53.180;5.800;2022-11-20T11:41:39;4.10;;;3.75;;
55090;SDS011;40985;53.180;5.800;2022-11-20T11:44:17;5.20;;;3.63;;
55090;SDS011;40985;53.180;5.800;2022-11-20T11:47:05;4.70;;;3.95;;
55090;SDS011;40985;53.180;5.800;2022-11-20T11:49:36;5.20;;;3.88;;
55090;SDS011;40985;53.180;5.800;2022-11-20T11:52:08;9.52;;;6.22;;
55090;SDS011;40985;53.180;5.800;2022-11-20T12:02:38;4.32;;;3.92;;
55090;SDS011;40985;53.180;5.800;2022-11-20T12:05:12;3.70;;;3.30;;
55090;SDS011;40985;53.180;5.800;2022-11-20T12:10:16;4.15;;;3.75;;
55090;SDS011;40985;53.180;5.800;2022-11-20T12:13:21;4.57;;;3.60;;
55090;SDS011;40985;53.180;5.800;2022-11-20T12:15:50;5.18;;;4.00;;
55090;SDS011;40985;53.180;5.800;2022-11-20T12:18:16;4.78;;;4.15;;
55090;SDS011;40985;53.180;5.800;2022-11-20T12:20:45;5.22;;;4.18;;
55090;SDS011;40985;53.180;5.800;2022-11-20T12:23:26;4.13;;;3.70;;
55090;SDS011;40985;53.180;5.800;2022-11-20T12:26:02;5.07;;;4.05;;
55090;SDS011;40985;53.180;5.800;2022-11-20T12:28:44;4.00;;;3.63;;
55090;SDS011;40985;53.180;5.800;2022-11-20T12:31:36;5.63;;;3.75;;
55090;SDS011;40985;53.180;5.800;2022-11-20T12:40:27;4.78;;;3.78;;
55090;SDS011;40985;53.180;5.800;2022-11-20T13:07:52;4.90;;;4.18;;
55090;SDS011;40985;53.180;5.800;2022-11-20T13:16:00;7.30;;;4.47;;
55090;SDS011;40985;53.180;5.800;2022-11-20T13:18:41;4.90;;;4.10;;
55090;SDS011;40985;53.180;5.800;2022-11-20T13:21:17;4.95;;;4.13;;
55090;SDS011;40985;53.180;5.800;2022-11-20T13:23:45;5.05;;;4.55;;
55090;SDS011;40985;53.180;5.800;2022-11-20T13:26:19;6.85;;;4.25;;
55090;SDS011;40985;53.180;5.800;2022-11-20T13:28:46;3.80;;;3.38;;
55090;SDS011;40985;53.180;5.800;2022-11-20T13:31:27;5.07;;;4.47;;
55090;SDS011;40985;53.180;5.800;2022-11-20T13:33:59;5.03;;;4.53;;
55090;SDS011;40985;53.180;5.800;2022-11-20T13:36:28;3.83;;;3.53;;
55090;SDS011;40985;53.180;5.800;2022-11-20T13:38:55;7.43;;;4.65;;
55090;SDS011;40985;53.180;5.800;2022-11-20T13:41:55;4.80;;;4.30;;
55090;SDS011;40985;53.180;5.800;2022-11-20T13:47:03;5.97;;;5.03;;
55090;SDS011;40985;53.180;5.800;2022-11-20T13:49:38;5.53;;;4.70;;
55090;SDS011;40985;53.180;5.800;2022-11-20T13:57:42;7.05;;;5.63;;
55090;SDS011;40985;53.180;5.800;2022-11-20T14:02:39;8.35;;;6.13;;
55090;SDS011;40985;53.180;5.800;2022-11-20T14:05:11;8.10;;;5.40;;
55090;SDS011;40985;53.180;5.800;2022-11-20T14:07:47;9.70;;;5.25;;
55090;SDS011;40985;53.180;5.800;2022-11-20T14:10:19;6.65;;;5.38;;
55090;SDS011;40985;53.180;5.800;2022-11-20T14:12:52;7.03;;;6.32;;
55090;SDS011;40985;53.180;5.800;2022-11-20T14:15:29;6.85;;;5.97;;
55090;SDS011;40985;53.180;5.800;2022-11-20T14:17:56;6.55;;;5.70;;
55090;SDS011;40985;53.180;5.800;2022-11-20T14:20:29;5.65;;;5.07;;
55090;SDS011;40985;53.180;5.800;2022-11-20T14:22:56;6.78;;;6.05;;
55090;SDS011;40985;53.180;5.800;2022-11-20T14:25:23;8.50;;;6.38;;
55090;SDS011;40985;53.180;5.800;2022-11-20T14:27:56;6.60;;;5.57;;
55090;SDS011;40985;53.180;5.800;2022-11-20T14:30:24;6.85;;;5.75;;
55090;SDS011;40985;53.180;5.800;2022-11-20T14:32:53;6.35;;;4.75;;
55090;SDS011;40985;53.180;5.800;2022-11-20T14:35:25;7.18;;;6.00;;
55090;SDS011;40985;53.180;5.800;2022-11-20T14:37:52;8.05;;;5.95;;
55090;SDS011;40985;53.180;5.800;2022-11-20T14:42:48;6.00;;;5.40;;
55090;SDS011;40985;53.180;5.800;2022-11-20T14:45:14;6.88;;;5.40;;
55090;SDS011;40985;53.180;5.800;2022-11-20T14:47:41;6.22;;;5.30;;
55090;SDS011;40985;53.180;5.800;2022-11-20T14:50:18;7.63;;;5.72;;
55090;SDS011;40985;53.180;5.800;2022-11-20T14:53:06;6.60;;;5.30;;
55090;SDS011;40985;53.180;5.800;2022-11-20T14:55:36;6.97;;;5.88;;
55090;SDS011;40985;53.180;5.800;2022-11-20T14:58:04;8.57;;;7.00;;
55090;SDS011;40985;53.180;5.800;2022-11-20T15:00:33;7.07;;;5.78;;
55090;SDS011;40985;53.180;5.800;2022-11-20T15:03:00;6.70;;;5.53;;
55090;SDS011;40985;53.180;5.800;2022-11-20T15:05:36;5.90;;;4.63;;
55090;SDS011;40985;53.180;5.800;2022-11-20T15:08:10;7.05;;;5.82;;
55090;SDS011;40985;53.180;5.800;2022-11-20T15:10:37;6.45;;;5.53;;
55090;SDS011;40985;53.180;5.800;2022-11-20T15:13:05;6.05;;;5.28;;
55090;SDS011;40985;53.180;5.800;2022-11-20T15:15:39;6.15;;;4.32;;
55090;SDS011;40985;53.180;5.800;2022-11-20T15:18:13;7.00;;;5.40;;
55090;SDS011;40985;53.180;5.800;2022-11-20T15:20:41;6.10;;;4.63;;
55090;SDS011;40985;53.180;5.800;2022-11-20T15:23:12;5.47;;;4.43;;
55090;SDS011;40985;53.180;5.800;2022-11-20T15:25:40;7.05;;;6.18;;
55090;SDS011;40985;53.180;5.800;2022-11-20T15:28:39;7.90;;;6.68;;
55090;SDS011;40985;53.180;5.800;2022-11-20T15:31:02;5.85;;;4.57;;
55090;SDS011;40985;53.180;5.800;2022-11-20T15:33:29;6.53;;;5.30;;
55090;SDS011;40985;53.180;5.800;2022-11-20T15:35:55;6.35;;;4.70;;
55090;SDS011;40985;53.180;5.800;2022-11-20T15:38:21;6.78;;;5.30;;
55090;SDS011;40985;53.180;5.800;2022-11-20T15:40:47;5.35;;;4.78;;
55090;SDS011;40985;53.180;5.800;2022-11-20T15:43:13;7.05;;;5.43;;
55090;SDS011;40985;53.180;5.800;2022-11-20T15:45:40;6.05;;;4.70;;
55090;SDS011;40985;53.180;5.800;2022-11-20T15:48:12;5.38;;;4.35;;
55090;SDS011;40985;53.180;5.800;2022-11-20T15:53:30;32.58;;;16.73;;
55090;SDS011;40985;53.180;5.800;2022-11-20T15:55:56;42.42;;;21.50;;
55090;SDS011;40985;53.180;5.800;2022-11-20T15:58:22;9.30;;;7.03;;
55090;SDS011;40985;53.180;5.800;2022-11-20T16:00:49;6.15;;;4.90;;
55090;SDS011;40985;53.180;5.800;2022-11-20T16:03:15;6.47;;;5.78;;
55090;SDS011;40985;53.180;5.800;2022-11-20T16:05:41;4.60;;;4.20;;
55090;SDS011;40985;53.180;5.800;2022-11-20T16:08:07;5.22;;;4.55;;
55090;SDS011;40985;53.180;5.800;2022-11-20T16:10:33;7.30;;;5.00;;
55090;SDS011;40985;53.180;5.800;2022-11-20T16:12:59;6.07;;;5.45;;
55090;SDS011;40985;53.180;5.800;2022-11-20T16:15:44;6.38;;;5.15;;
55090;SDS011;40985;53.180;5.800;2022-11-20T16:18:18;7.43;;;5.15;;
55090;SDS011;40985;53.180;5.800;2022-11-20T16:20:45;6.90;;;5.57;;
55090;SDS011;40985;53.180;5.800;2022-11-20T16:23:13;6.55;;;5.80;;
55090;SDS011;40985;53.180;5.800;2022-11-20T16:25:40;7.20;;;4.43;;
55090;SDS011;40985;53.180;5.800;2022-11-20T16:28:06;6.78;;;5.20;;
55090;SDS011;40985;53.180;5.800;2022-11-20T16:30:32;7.43;;;5.40;;
55090;SDS011;40985;53.180;5.800;2022-11-20T16:32:59;6.60;;;4.95;;
55090;SDS011;40985;53.180;5.800;2022-11-20T16:35:25;6.55;;;5.38;;
55090;SDS011;40985;53.180;5.800;2022-11-20T16:37:53;5.70;;;5.07;;